Time;durP1;ratioP1;P1;durP2;ratioP2;P2;SDS_P1;SDS_P2;PMS_P1;PMS_P2;Temp;Humidity;BMP_temperature;BMP_pressure;BME280_temperature;BME280_humidity;BME280_pressure;Samples;Min_cycle;Max_cycle;Signal;HPM_P1;HPM_P2
2022/03/29 00:01:01;;;;;;;53.38;26.58;;;;;;;7.56;92.82;101756.00;5094826;28;20028;-74
2022/03/29 00:03:26;;;;;;;56.00;26.65;;;;;;;7.17;93.44;101758.75;5094925;28;20028;-75
2022/03/29 00:05:52;;;;;;;66.10;29.10;;;;;;;7.13;95.21;101756.59;5093608;28;20032;-75
2022/03/29 00:08:18;;;;;;;54.25;27.00;;;;;;;7.43;95.25;101758.13;5076734;28;20047;-76
2022/03/29 00:10:44;;;;;;;57.72;27.63;;;;;;;7.56;92.88;101750.88;5094840;28;20069;-76
2022/03/29 00:13:10;;;;;;;55.95;26.20;;;;;;;7.35;92.97;101755.44;5076503;28;20068;-75
2022/03/29 00:15:35;;;;;;;61.10;27.55;;;;;;;7.13;95.65;101736.84;5094630;28;20107;-75
2022/03/29 00:18:01;;;;;;;60.15;26.70;;;;;;;7.52;94.79;101746.97;5094495;28;20016;-76
2022/03/29 00:20:26;;;;;;;53.47;26.00;;;;;;;7.38;92.49;101737.97;5094613;28;20028;-76
2022/03/29 00:22:51;;;;;;;51.13;25.60;;;;;;;7.46;92.42;101730.34;5075975;28;20032;-75
2022/03/29 00:25:18;;;;;;;49.38;25.02;;;;;;;7.44;93.34;101727.09;5076382;28;20548;-76
2022/03/29 00:27:43;;;;;;;47.28;24.25;;;;;;;7.34;93.30;101733.25;5076287;28;20394;-75
2022/03/29 00:30:11;;;;;;;48.30;24.88;;;;;;;7.55;91.54;101733.00;5094466;28;20027;-76
2022/03/29 00:32:38;;;;;;;50.80;26.02;;;;;;;7.66;91.44;101725.91;5076236;28;20034;-75
2022/03/29 00:35:04;;;;;;;50.38;25.13;;;;;;;7.80;90.62;101728.97;5093146;28;20020;-75
2022/03/29 00:37:29;;;;;;;47.08;24.65;;;;;;;7.73;91.29;101725.31;5094295;28;20027;-75
2022/03/29 00:39:54;;;;;;;46.10;24.80;;;;;;;7.83;90.51;101719.16;5076072;28;20028;-74
2022/03/29 00:42:19;;;;;;;46.05;24.33;;;;;;;7.76;91.07;101717.31;5094568;28;20459;-76
2022/03/29 00:44:45;;;;;;;43.22;24.58;;;;;;;7.93;89.40;101721.66;5094245;28;20031;-75
2022/03/29 00:47:10;;;;;;;47.25;24.77;;;;;;;7.89;88.88;101712.63;5076008;28;20024;-76
2022/03/29 00:49:35;;;;;;;46.05;24.40;;;;;;;7.99;89.20;101709.97;5094112;28;20066;-75
2022/03/29 00:52:03;;;;;;;47.33;24.45;;;;;;;7.65;89.82;101706.28;5075697;28;20108;-76
2022/03/29 00:54:32;;;;;;;44.03;24.42;;;;;;;7.39;91.55;101701.03;5094021;28;20032;-75
2022/03/29 00:56:58;;;;;;;49.25;25.15;;;;;;;7.43;91.38;101704.91;5093985;28;20032;-75
2022/03/29 00:59:25;;;;;;;46.25;24.30;;;;;;;7.56;91.46;101707.13;5093813;28;20479;-75
2022/03/29 01:01:50;;;;;;;44.08;24.95;;;;;;;7.81;91.46;101694.53;5093741;28;20085;-75
2022/03/29 01:04:15;;;;;;;46.50;24.58;;;;;;;7.94;89.16;101697.56;5092523;28;20032;-78
2022/03/29 01:06:43;;;;;;;47.88;25.00;;;;;;;7.82;89.11;101693.56;5093787;28;20035;-76
2022/03/29 01:09:08;;;;;;;42.40;23.77;;;;;;;7.71;89.93;101694.63;5093814;28;20065;-75
2022/03/29 01:11:33;;;;;;;40.60;23.58;;;;;;;7.78;89.42;101692.25;5093928;28;20028;-76
2022/03/29 01:13:59;;;;;;;43.80;24.23;;;;;;;7.76;89.24;101691.59;5093629;28;20016;-76
2022/03/29 01:19:12;;;;;;;43.47;23.23;;;;;;;7.67;87.94;101688.94;5093585;28;20023;-76
2022/03/29 01:21:40;;;;;;;41.55;22.88;;;;;;;7.62;88.81;101687.75;5093585;28;20028;-76
2022/03/29 01:24:08;;;;;;;41.15;23.02;;;;;;;7.22;90.19;101673.47;5093408;28;20020;-76
2022/03/29 01:26:34;;;;;;;43.30;23.20;;;;;;;7.42;90.42;101677.59;5092104;28;20107;-76
2022/03/29 01:29:00;;;;;;;42.05;23.05;;;;;;;7.50;89.97;101664.00;5093487;28;20104;-75
2022/03/29 01:31:26;;;;;;;41.17;22.52;;;;;;;7.58;89.61;101666.66;5093404;28;20429;-76
2022/03/29 01:33:51;;;;;;;41.03;23.02;;;;;;;7.54;90.31;101660.19;5092877;28;20216;-75
2022/03/29 01:36:17;;;;;;;45.67;22.80;;;;;;;7.49;90.33;101657.25;5092990;28;20103;-75
2022/03/29 01:38:42;;;;;;;42.65;22.83;;;;;;;7.21;91.11;101652.09;5093220;28;20034;-75
2022/03/29 01:41:07;;;;;;;41.30;23.05;;;;;;;7.25;91.01;101637.22;5093316;28;20043;-75
2022/03/29 01:43:33;;;;;;;42.58;22.08;;;;;;;7.39;90.77;101652.16;5093240;28;20023;-76
2022/03/29 01:45:59;;;;;;;48.25;24.20;;;;;;;7.47;90.26;101641.13;5075032;28;20028;-76
2022/03/29 01:48:25;;;;;;;44.53;23.50;;;;;;;7.38;91.07;101644.59;5093184;28;20048;-76
2022/03/29 01:50:51;;;;;;;42.40;22.77;;;;;;;7.65;90.25;101641.13;5074893;28;20040;-76
2022/03/29 01:53:27;;;;;;;46.28;24.38;;;;;;;7.44;89.48;101639.66;5093039;28;20077;-76
2022/03/29 01:56:00;;;;;;;45.58;23.63;;;;;;;7.39;90.74;101641.88;5091846;28;20073;-76
2022/03/29 01:58:27;;;;;;;43.00;22.70;;;;;;;7.39;89.97;101633.31;5075007;28;20447;-76
2022/03/29 02:00:53;;;;;;;52.03;23.40;;;;;;;7.07;92.75;101637.16;5092943;28;20262;-75
2022/03/29 02:03:19;;;;;;;40.42;23.40;;;;;;;7.26;91.46;101632.88;5075434;28;20048;-75
2022/03/29 02:05:45;;;;;;;41.83;23.38;;;;;;;7.29;91.00;101637.75;5074861;28;20154;-76
2022/03/29 02:08:11;;;;;;;42.97;23.08;;;;;;;7.02;91.07;101634.22;5091366;28;20031;-75
2022/03/29 02:10:36;;;;;;;41.20;22.98;;;;;;;6.91;92.62;101632.66;5074632;28;20189;-75
2022/03/29 02:13:01;;;;;;;43.00;22.98;;;;;;;7.03;93.08;101632.47;5092951;28;20028;-74
2022/03/29 02:15:27;;;;;;;45.83;23.08;;;;;;;7.07;92.48;101632.03;5074683;28;20161;-75
2022/03/29 02:17:52;;;;;;;45.50;22.88;;;;;;;7.19;91.46;101627.50;5074748;28;20023;-76
2022/03/29 02:20:21;;;;;;;43.85;22.00;;;;;;;7.12;92.29;101621.31;5092822;28;20435;-76
2022/03/29 02:22:47;;;;;;;40.95;21.92;;;;;;;6.78;91.88;101614.97;5092858;28;20024;-75
2022/03/29 02:25:12;;;;;;;43.33;22.27;;;;;;;7.14;91.84;101619.41;5091560;28;20352;-76
2022/03/29 02:27:43;;;;;;;44.78;23.02;;;;;;;7.05;90.96;101615.13;5092758;28;20027;-74
2022/03/29 02:30:10;;;;;;;41.03;22.20;;;;;;;7.03;92.70;101619.63;5074749;28;20069;-75
2022/03/29 02:32:36;;;;;;;43.00;22.38;;;;;;;7.30;90.75;101617.00;5074608;28;20048;-74
2022/03/29 02:35:02;;;;;;;43.72;22.73;;;;;;;7.00;91.55;101608.66;5074600;28;20020;-75
2022/03/29 02:37:27;;;;;;;46.85;24.15;;;;;;;7.00;92.28;101607.84;5074586;28;20024;-75
2022/03/29 02:39:53;;;;;;;46.22;23.48;;;;;;;7.16;91.54;101608.03;5092572;28;20062;-74
2022/03/29 02:42:18;;;;;;;40.67;22.58;;;;;;;7.27;90.96;101601.06;5092657;28;20024;-75
2022/03/29 02:44:43;;;;;;;42.72;23.52;;;;;;;7.28;90.03;101598.38;5092664;28;20432;-75
2022/03/29 02:47:09;;;;;;;42.83;22.30;;;;;;;7.52;89.85;101586.69;5095502;28;20055;-76
2022/03/29 02:49:35;;;;;;;40.80;22.70;;;;;;;7.43;88.86;101591.75;5096282;28;20076;-75
2022/03/29 02:52:00;;;;;;;42.13;22.95;;;;;;;7.11;89.20;101583.72;5095998;28;20052;-75
2022/03/29 02:54:25;;;;;;;41.80;23.02;;;;;;;7.00;91.21;101579.59;5077999;28;20479;-75
2022/03/29 02:56:51;;;;;;;43.03;22.52;;;;;;;7.05;90.01;101581.69;5096227;28;20103;-74
2022/03/29 02:59:16;;;;;;;45.67;21.75;;;;;;;7.35;89.99;101572.88;5096053;28;20031;-77
2022/03/29 03:01:41;;;;;;;43.85;22.10;;;;;;;7.36;89.19;101570.13;5096127;28;20035;-75
2022/03/29 03:04:07;;;;;;;42.38;23.05;;;;;;;7.37;90.17;101564.06;5077898;28;20073;-75
2022/03/29 03:06:33;;;;;;;42.78;22.05;;;;;;;6.95;90.01;101569.72;5096018;28;20077;-75
2022/03/29 03:08:58;;;;;;;44.38;23.10;;;;;;;6.76;92.17;101568.06;5096018;28;20479;-74
2022/03/29 03:11:24;;;;;;;42.33;22.52;;;;;;;6.99;91.46;101571.06;5096146;28;20035;-75
2022/03/29 03:13:50;;;;;;;42.28;22.85;;;;;;;7.00;90.82;101567.53;5077686;28;20027;-74
2022/03/29 03:16:15;;;;;;;45.55;23.40;;;;;;;7.15;90.56;101562.72;5095935;28;20110;-74
2022/03/29 03:18:40;;;;;;;43.47;21.38;;;;;;;7.08;89.94;101566.81;5095858;28;20035;-75
2022/03/29 03:21:06;;;;;;;41.75;21.70;;;;;;;7.03;90.87;101560.50;5077637;28;20023;-74
2022/03/29 03:23:31;;;;;;;41.83;21.23;;;;;;;7.14;90.86;101565.44;5077491;28;20106;-75
2022/03/29 03:25:56;;;;;;;37.38;20.83;;;;;;;7.12;89.95;101575.84;5095705;28;20097;-75
2022/03/29 03:28:22;;;;;;;38.30;21.23;;;;;;;7.06;89.82;101571.28;5077447;28;20035;-75
2022/03/29 03:30:47;;;;;;;40.90;21.95;;;;;;;7.27;90.62;101557.38;5077427;28;20016;-75
2022/03/29 03:33:13;;;;;;;39.55;21.23;;;;;;;7.26;88.72;101554.00;5095591;28;20069;-74
2022/03/29 03:35:38;;;;;;;40.17;21.73;;;;;;;7.28;88.94;101548.69;5095482;28;20031;-75
2022/03/29 03:38:05;;;;;;;41.03;21.45;;;;;;;7.22;89.28;101543.19;5095377;28;20435;-76
2022/03/29 03:40:30;;;;;;;45.03;21.85;;;;;;;6.83;91.25;101552.09;5095675;28;20447;-76
2022/03/29 03:42:55;;;;;;;39.40;21.05;;;;;;;6.97;91.07;101552.41;5077217;28;20024;-75
2022/03/29 03:45:21;;;;;;;38.35;21.50;;;;;;;6.99;90.69;101545.38;5095277;28;20474;-75
2022/03/29 03:47:46;;;;;;;40.15;21.33;;;;;;;7.15;90.41;101549.06;5095200;28;20069;-75
2022/03/29 03:50:12;;;;;;;37.92;19.85;;;;;;;7.23;90.36;101536.28;5077058;28;20134;-75
2022/03/29 03:52:37;;;;;;;37.88;20.10;;;;;;;7.10;89.41;101528.91;5095222;28;20038;-75
2022/03/29 03:55:03;;;;;;;35.80;19.63;;;;;;;7.08;90.68;101537.72;5095173;28;20107;-76
2022/03/29 03:57:28;;;;;;;39.65;19.77;;;;;;;6.99;90.58;101545.38;5092927;28;20050;-76
2022/03/29 03:59:56;;;;;;;40.10;21.00;;;;;;;7.18;89.96;101541.84;5076868;28;20032;-75
2022/03/29 04:02:22;;;;;;;40.67;21.05;;;;;;;6.98;89.96;101543.72;5076798;28;20536;-76
2022/03/29 04:04:48;;;;;;;40.20;22.05;;;;;;;7.20;89.34;101532.25;5095831;28;20020;-77
2022/03/29 04:07:14;;;;;;;39.25;19.77;;;;;;;6.79;89.74;101513.03;5095416;28;20077;-76
2022/03/29 04:09:39;;;;;;;39.50;20.23;;;;;;;6.91;90.15;101526.50;5096838;28;20020;-76
2022/03/29 04:12:07;;;;;;;40.03;21.05;;;;;;;6.63;91.03;101520.56;5078091;28;20088;-76
2022/03/29 04:14:33;;;;;;;37.72;19.52;;;;;;;6.67;91.27;101525.25;5096536;28;20039;-76
2022/03/29 04:16:59;;;;;;;38.67;21.23;;;;;;;6.97;90.36;101521.56;5096545;28;20024;-77
2022/03/29 04:19:24;;;;;;;37.90;20.58;;;;;;;7.20;89.12;101516.81;5096006;28;20063;-77
2022/03/29 04:21:50;;;;;;;36.38;19.77;;;;;;;7.23;87.38;101513.94;5077654;28;20051;-76
2022/03/29 04:24:16;;;;;;;38.55;20.02;;;;;;;7.35;87.76;101508.59;5096711;28;20039;-77
2022/03/29 04:26:42;;;;;;;37.58;20.33;;;;;;;7.35;86.74;101513.72;5094435;28;20024;-77
2022/03/29 04:29:07;;;;;;;38.90;19.77;;;;;;;7.21;87.75;101507.34;5077799;28;20103;-77
2022/03/29 04:31:33;;;;;;;38.33;19.60;;;;;;;7.39;87.35;101504.75;5095831;28;20028;-74
2022/03/29 04:34:00;;;;;;;37.80;19.63;;;;;;;7.19;85.20;101499.78;5095998;28;20039;-76
2022/03/29 04:36:26;;;;;;;37.28;19.83;;;;;;;6.97;87.70;101502.78;5077741;28;20027;-76
2022/03/29 04:38:52;;;;;;;38.53;19.95;;;;;;;6.91;87.53;101486.19;5094590;28;20026;-76
2022/03/29 04:41:18;;;;;;;38.30;20.45;;;;;;;7.21;86.73;101494.47;5077939;28;20020;-76
2022/03/29 04:43:44;;;;;;;36.92;20.33;;;;;;;7.23;86.87;101500.28;5095799;28;20024;-74
2022/03/29 04:46:09;;;;;;;36.22;19.83;;;;;;;7.21;86.64;101503.00;5093076;28;20031;-75
2022/03/29 04:48:35;;;;;;;37.83;20.10;;;;;;;7.33;86.46;101495.06;5076370;28;20016;-75
2022/03/29 04:51:01;;;;;;;41.10;20.98;;;;;;;7.29;86.46;101491.19;5075767;28;20075;-75
2022/03/29 04:53:26;;;;;;;36.50;19.25;;;;;;;7.33;85.29;101495.06;5076268;28;20055;-75
2022/03/29 04:55:52;;;;;;;35.63;19.25;;;;;;;6.95;86.52;101490.06;5076230;28;20028;-76
2022/03/29 04:58:18;;;;;;;38.55;19.60;;;;;;;6.97;87.72;101493.31;5075998;28;20024;-75
2022/03/29 05:00:43;;;;;;;37.83;19.88;;;;;;;7.08;85.87;101497.44;5094426;28;20030;-76
2022/03/29 05:03:09;;;;;;;32.90;18.40;;;;;;;6.91;86.33;101493.09;5094098;28;20046;-75
2022/03/29 05:05:35;;;;;;;37.80;19.38;;;;;;;6.89;86.87;101482.13;5094026;28;20020;-77
2022/03/29 05:08:01;;;;;;;34.35;18.50;;;;;;;6.85;87.22;101484.19;5059054;28;20039;-74
2022/03/29 05:10:26;;;;;;;37.40;19.30;;;;;;;6.74;87.49;101487.78;5075796;28;20055;-77
2022/03/29 05:12:52;;;;;;;33.75;18.98;;;;;;;6.76;88.17;101479.91;5095140;28;20031;-75
2022/03/29 05:15:20;;;;;;;33.92;19.27;;;;;;;7.06;86.90;101488.25;5076811;28;20039;-77
2022/03/29 05:17:46;;;;;;;41.83;18.95;;;;;;;7.03;86.11;101478.25;5095022;28;20038;-77
2022/03/29 05:20:16;;;;;;;37.28;18.65;;;;;;;7.10;85.40;101482.66;5062096;28;20051;-77
2022/03/29 05:22:42;;;;;;;32.38;17.80;;;;;;;7.18;84.94;101469.88;5095260;28;20501;-77
2022/03/29 05:25:08;;;;;;;37.72;19.23;;;;;;;7.16;84.04;101461.53;5093250;28;20081;-77
2022/03/29 05:27:35;;;;;;;36.30;18.23;;;;;;;7.07;85.16;101474.44;5094878;28;20463;-74
2022/03/29 05:30:00;;;;;;;37.53;20.00;;;;;;;6.95;85.63;101476.41;5076437;28;20031;-75
2022/03/29 05:32:26;;;;;;;39.65;19.70;;;;;;;7.04;85.96;101472.97;5093352;28;20032;-75
2022/03/29 05:34:51;;;;;;;39.15;19.20;;;;;;;7.04;86.30;101472.97;5093213;28;20390;-75
2022/03/29 05:37:16;;;;;;;35.90;18.35;;;;;;;7.17;85.08;101481.13;5074847;28;20042;-75
2022/03/29 05:39:43;;;;;;;40.47;18.10;;;;;;;7.01;84.69;101488.69;5093289;28;20050;-75
2022/03/29 05:42:10;;;;;;;39.97;18.30;;;;;;;6.44;87.91;101485.47;5093177;28;20085;-76
2022/03/29 05:44:36;;;;;;;36.55;17.00;;;;;;;6.59;86.28;101488.38;5075117;28;20471;-76
2022/03/29 05:49:46;;;;;;;31.13;16.92;;;;;;;7.00;85.15;101484.50;5093255;28;20110;-76
2022/03/29 05:52:11;;;;;;;35.80;17.20;;;;;;;7.18;84.71;101484.50;5093192;28;20028;-75
2022/03/29 05:54:39;;;;;;;36.63;17.65;;;;;;;7.02;84.81;101490.31;5093194;28;20062;-76
2022/03/29 05:57:04;;;;;;;38.03;17.70;;;;;;;6.96;84.56;101486.56;5093286;28;20024;-75
2022/03/29 05:59:30;;;;;;;45.70;17.40;;;;;;;7.05;85.17;101494.31;5074884;28;20028;-75
2022/03/29 06:01:57;;;;;;;39.47;18.45;;;;;;;6.99;84.28;101493.97;5093092;28;20039;-76
2022/03/29 06:04:25;;;;;;;37.33;17.70;;;;;;;7.24;84.68;101492.41;5092928;28;20017;-75
2022/03/29 06:06:50;;;;;;;33.83;17.42;;;;;;;7.33;83.47;101477.88;5075418;28;20035;-77
2022/03/29 06:09:16;;;;;;;33.20;17.10;;;;;;;6.91;84.88;101487.94;5092880;28;20053;-76
2022/03/29 06:11:41;;;;;;;38.40;18.23;;;;;;;7.17;84.28;101491.41;5092830;28;20023;-76
2022/03/29 06:14:06;;;;;;;37.53;19.13;;;;;;;7.17;85.23;101482.91;5092885;28;20035;-76
2022/03/29 06:16:32;;;;;;;36.80;18.40;;;;;;;6.98;85.01;101494.09;5074813;28;20081;-77
2022/03/29 06:18:57;;;;;;;41.40;18.92;;;;;;;7.15;84.38;101480.44;5092775;28;20024;-76
2022/03/29 06:21:24;;;;;;;36.50;18.33;;;;;;;7.20;83.66;101482.59;5076489;28;20077;-76
2022/03/29 06:23:49;;;;;;;38.22;18.48;;;;;;;7.29;84.40;101468.84;5097149;28;20020;-76
2022/03/29 06:26:15;;;;;;;37.38;18.73;;;;;;;7.12;85.62;101478.19;5096881;28;20375;-75
2022/03/29 06:28:40;;;;;;;39.85;18.15;;;;;;;7.41;83.88;101470.22;5096802;28;20024;-76
2022/03/29 06:31:07;;;;;;;36.05;18.45;;;;;;;7.00;84.77;101481.94;5096483;28;20024;-75
2022/03/29 06:33:33;;;;;;;35.03;18.42;;;;;;;7.05;85.39;101481.47;5078395;28;20051;-75
2022/03/29 06:35:58;;;;;;;37.20;18.65;;;;;;;7.01;84.91;101471.50;5095524;28;20434;-77
2022/03/29 06:38:23;;;;;;;42.40;19.52;;;;;;;7.05;85.03;101481.47;5096870;28;20027;-76
2022/03/29 06:40:49;;;;;;;36.58;18.05;;;;;;;6.66;85.50;101487.69;5078333;28;20428;-76
2022/03/29 06:43:14;;;;;;;41.80;19.23;;;;;;;6.96;85.72;101472.88;5096472;28;20146;-77
2022/03/29 06:45:40;;;;;;;38.30;17.70;;;;;;;7.19;83.81;101481.78;5078290;28;20028;-76
2022/03/29 06:48:07;;;;;;;39.15;18.38;;;;;;;7.27;83.49;101480.22;5096481;28;20027;-75
2022/03/29 06:50:33;;;;;;;39.00;19.05;;;;;;;7.24;82.03;101473.63;5096221;28;20173;-76
2022/03/29 06:52:59;;;;;;;37.00;18.73;;;;;;;6.82;84.67;101481.91;5078302;28;20081;-75
2022/03/29 06:55:25;;;;;;;44.05;19.20;;;;;;;6.92;85.56;101477.50;5095051;28;20104;-76
2022/03/29 06:57:50;;;;;;;44.13;18.52;;;;;;;7.29;83.91;101468.03;5095350;28;20076;-76
2022/03/29 07:00:16;;;;;;;43.00;18.73;;;;;;;7.14;83.33;101462.63;5096191;28;20066;-78
2022/03/29 07:02:42;;;;;;;34.38;16.98;;;;;;;6.86;84.02;101467.81;5078271;28;20028;-76
2022/03/29 07:05:08;;;;;;;40.22;18.52;;;;;;;6.93;85.02;101462.91;5095909;28;20032;-74
2022/03/29 07:07:33;;;;;;;36.70;17.88;;;;;;;6.71;86.07;101467.50;5096203;28;20046;-75
2022/03/29 07:12:51;;;;;;;41.53;19.13;;;;;;;7.05;86.00;101466.06;5095923;28;20043;-74
2022/03/29 07:15:17;;;;;;;37.78;17.52;;;;;;;7.12;85.09;101467.09;5077276;28;20024;-76
2022/03/29 07:17:43;;;;;;;36.60;17.20;;;;;;;7.44;83.32;101466.56;5076392;28;20016;-76
2022/03/29 07:20:09;;;;;;;38.70;18.00;;;;;;;7.39;82.78;101466.19;5095671;28;20028;-76
2022/03/29 07:22:35;;;;;;;36.80;18.02;;;;;;;7.28;84.41;101459.53;5077558;28;20024;-75
2022/03/29 07:25:01;;;;;;;35.60;18.00;;;;;;;7.10;84.58;101467.22;5095662;28;20035;-75
2022/03/29 07:27:26;;;;;;;33.50;16.88;;;;;;;7.12;83.68;101473.03;5095453;28;20081;-77
2022/03/29 07:29:52;;;;;;;37.90;17.50;;;;;;;7.51;82.66;101479.59;5095647;28;20398;-76
2022/03/29 07:32:18;;;;;;;42.30;17.92;;;;;;;7.49;82.48;101474.63;5094088;28;20099;-74
2022/03/29 07:34:43;;;;;;;37.35;17.63;;;;;;;7.48;82.36;101470.47;5095429;28;20055;-78
2022/03/29 07:37:09;;;;;;;36.45;18.00;;;;;;;7.65;82.27;101479.06;5095663;28;20049;-75
2022/03/29 07:39:34;;;;;;;39.08;18.13;;;;;;;7.43;81.85;101470.09;5095373;28;20024;-76
2022/03/29 07:41:59;;;;;;;38.25;17.63;;;;;;;7.28;82.84;101466.41;5095455;28;20028;-76
2022/03/29 07:44:24;;;;;;;39.15;18.67;;;;;;;6.98;84.41;101470.97;5095339;28;20490;-75
2022/03/29 07:46:50;;;;;;;44.88;20.02;;;;;;;7.17;83.23;101473.41;5095382;28;20104;-76
2022/03/29 07:49:16;;;;;;;38.75;18.30;;;;;;;7.13;83.52;101469.50;5095227;28;20019;-75
2022/03/29 07:51:41;;;;;;;38.28;17.80;;;;;;;7.54;82.46;101462.13;5095013;28;20044;-76
2022/03/29 07:54:07;;;;;;;39.80;18.30;;;;;;;7.56;82.73;101460.19;5095169;28;20024;-76
2022/03/29 07:56:32;;;;;;;38.90;17.75;;;;;;;7.36;82.29;101457.00;5076865;28;20024;-76
2022/03/29 07:58:58;;;;;;;37.15;18.73;;;;;;;7.64;82.31;101454.31;5076704;28;20382;-77
2022/03/29 08:01:23;;;;;;;41.75;18.25;;;;;;;7.53;81.78;101462.28;5094522;28;20409;-76
2022/03/29 08:03:49;;;;;;;42.90;17.80;;;;;;;7.08;82.22;101471.72;5094907;28;20024;-77
2022/03/29 08:06:14;;;;;;;40.28;19.15;;;;;;;7.15;83.72;101467.59;5097032;28;20043;-75
2022/03/29 08:08:41;;;;;;;43.35;19.13;;;;;;;7.67;82.58;101465.09;5097159;28;20353;-76
2022/03/29 08:11:08;;;;;;;41.85;18.42;;;;;;;7.95;81.18;101464.16;5109969;28;20031;-74
2022/03/29 08:13:34;;;;;;;37.83;17.75;;;;;;;7.51;82.42;101465.00;5110182;28;20035;-77
2022/03/29 08:16:01;;;;;;;36.95;18.38;;;;;;;7.79;81.26;101468.22;5110165;28;20028;-75
2022/03/29 08:18:28;;;;;;;40.40;18.05;;;;;;;7.89;80.55;101471.53;5109536;28;20016;-75
2022/03/29 08:20:54;;;;;;;39.15;18.67;;;;;;;7.84;79.97;101468.59;5108318;28;20024;-76
2022/03/29 08:23:20;;;;;;;40.95;18.45;;;;;;;7.56;81.96;101464.53;5106249;28;20024;-74
2022/03/29 08:25:45;;;;;;;42.92;18.80;;;;;;;7.31;82.58;101463.53;5090351;28;20041;-74
2022/03/29 08:28:15;;;;;;;42.25;19.02;;;;;;;7.75;82.07;101464.34;5090438;28;20028;-75
2022/03/29 08:30:44;;;;;;;47.03;19.60;;;;;;;7.94;80.54;101465.94;5093430;28;20102;-75
2022/03/29 08:33:09;;;;;;;37.88;18.13;;;;;;;7.29;82.27;101463.72;5094864;28;20031;-74
2022/03/29 08:35:37;;;;;;;44.28;20.05;;;;;;;7.21;83.87;101454.16;5096017;28;20110;-75
2022/03/29 08:38:03;;;;;;;42.10;19.30;;;;;;;7.41;82.55;101454.00;5095642;28;20036;-73
2022/03/29 08:40:28;;;;;;;40.58;18.48;;;;;;;7.18;82.68;101467.31;5096452;28;20032;-76
2022/03/29 08:42:57;;;;;;;35.42;18.17;;;;;;;7.42;82.89;101450.47;5114005;28;20073;-74
2022/03/29 08:45:29;;;;;;;40.03;19.10;;;;;;;7.82;81.07;101449.91;5076545;28;20049;-75
2022/03/29 08:47:57;;;;;;;37.00;18.40;;;;;;;7.98;80.40;101444.06;5095308;28;20020;-74
2022/03/29 08:50:29;;;;;;;36.40;18.23;;;;;;;7.84;79.61;101447.19;5094074;28;20054;-78
2022/03/29 08:52:55;;;;;;;42.38;19.80;;;;;;;8.26;79.28;101436.16;5112620;28;20035;-76
2022/03/29 08:55:22;;;;;;;37.95;18.77;;;;;;;8.58;76.82;101441.41;5094924;28;20036;-76
2022/03/29 08:57:52;;;;;;;38.25;18.48;;;;;;;8.45;77.82;101440.25;5094039;28;20024;-74
2022/03/29 09:00:17;;;;;;;40.38;19.27;;;;;;;8.31;77.48;101445.00;5111137;28;20020;-74
2022/03/29 09:02:43;;;;;;;37.35;18.95;;;;;;;8.75;77.33;101442.25;5094845;28;20020;-75
2022/03/29 09:05:15;;;;;;;36.33;19.13;;;;;;;8.71;76.00;101437.56;5111762;28;20020;-75
2022/03/29 09:07:47;;;;;;;40.17;19.75;;;;;;;8.60;78.82;101438.66;5112873;28;20402;-72
2022/03/29 09:10:13;;;;;;;34.63;19.17;;;;;;;8.63;77.31;101435.81;5094347;28;20050;-74
2022/03/29 09:12:39;;;;;;;35.42;18.00;;;;;;;8.90;76.50;101446.78;5110027;28;20016;-75
2022/03/29 09:15:05;;;;;;;37.15;17.95;;;;;;;8.46;76.18;101444.44;5090123;28;20047;-74
2022/03/29 09:17:35;;;;;;;34.33;17.55;;;;;;;8.73;76.12;101445.97;5073479;28;20125;-75
2022/03/29 09:20:07;;;;;;;34.03;17.85;;;;;;;9.02;75.36;101448.88;5100021;28;20031;-76
2022/03/29 09:22:47;;;;;;;35.03;18.85;;;;;;;9.25;74.25;101448.25;5111813;28;20024;-74
2022/03/29 09:25:35;;;;;;;38.97;18.58;;;;;;;9.31;73.63;101445.03;5092848;28;20024;-75
2022/03/29 09:28:10;;;;;;;34.42;18.15;;;;;;;8.58;76.27;101449.16;5109881;28;20074;-75
2022/03/29 09:30:47;;;;;;;35.45;17.90;;;;;;;9.02;74.56;101454.03;5107880;28;20020;-76
2022/03/29 09:33:14;;;;;;;35.13;17.95;;;;;;;9.25;74.10;101453.41;5110527;28;20024;-75
2022/03/29 09:35:58;;;;;;;37.78;17.77;;;;;;;9.43;72.47;101442.91;5109655;28;20035;-75
2022/03/29 09:38:26;;;;;;;35.40;17.27;;;;;;;8.99;73.14;101451.00;5109978;28;20118;-76
2022/03/29 09:40:55;;;;;;;33.72;16.92;;;;;;;9.39;72.62;101445.03;5111011;28;20027;-78
2022/03/29 09:43:27;;;;;;;34.40;17.42;;;;;;;9.67;71.26;101455.00;5111612;28;20020;-76
2022/03/29 09:45:57;;;;;;;34.00;17.88;;;;;;;9.88;70.90;101433.81;5091877;28;20031;-75
2022/03/29 09:48:27;;;;;;;36.75;18.17;;;;;;;10.23;69.48;101442.06;5076310;28;20032;-75
2022/03/29 09:51:14;;;;;;;38.88;17.25;;;;;;;9.38;70.82;101434.84;5110416;28;20048;-76
2022/03/29 09:53:41;;;;;;;33.80;17.05;;;;;;;10.27;69.57;101443.38;5095876;28;20031;-76
2022/03/29 09:56:10;;;;;;;33.92;18.25;;;;;;;10.17;69.27;101430.63;5091516;28;20028;-75
2022/03/29 09:58:36;;;;;;;32.20;18.55;;;;;;;11.16;67.04;101417.91;5111475;28;20024;-74
2022/03/29 10:01:05;;;;;;;35.10;17.48;;;;;;;10.76;66.21;101423.25;5092136;28;20048;-78
2022/03/29 10:03:34;;;;;;;33.25;17.77;;;;;;;10.25;67.67;101422.06;5093908;28;20024;-74
2022/03/29 10:06:04;;;;;;;34.42;18.20;;;;;;;11.78;66.17;101414.25;5112921;28;20020;-74
2022/03/29 10:11:22;;;;;;;30.35;17.60;;;;;;;14.14;56.76;101417.47;5110985;28;20568;-73
2022/03/29 10:13:49;;;;;;;33.00;18.17;;;;;;;13.40;57.64;101399.91;5110153;28;20012;-72
2022/03/29 10:16:16;;;;;;;32.60;18.67;;;;;;;13.57;56.84;101405.63;5091442;28;20047;-75
2022/03/29 10:18:44;;;;;;;31.33;19.05;;;;;;;13.53;56.19;101397.41;5075415;28;20032;-74
2022/03/29 10:21:15;;;;;;;29.77;17.52;;;;;;;13.29;56.93;101392.66;5078232;28;20027;-75
2022/03/29 10:23:46;;;;;;;35.22;17.95;;;;;;;13.90;56.62;101390.19;5110121;28;20028;-73
2022/03/29 10:26:21;;;;;;;34.78;17.80;;;;;;;12.93;57.68;101385.78;5092764;28;20039;-73
2022/03/29 10:28:47;;;;;;;30.90;17.85;;;;;;;13.45;55.73;101388.97;5104906;28;20101;-74
2022/03/29 10:31:33;;;;;;;29.67;18.67;;;;;;;14.92;53.49;101392.84;5090537;28;20030;-75
2022/03/29 10:34:30;;;;;;;33.65;17.77;;;;;;;14.93;52.15;101394.44;5074497;28;20363;-76
2022/03/29 10:37:03;;;;;;;30.80;17.70;;;;;;;15.09;52.30;101394.03;5092771;28;20049;-75
2022/03/29 10:39:49;;;;;;;26.58;17.05;;;;;;;15.32;50.41;101381.38;5072799;28;20039;-74
2022/03/29 10:42:36;;;;;;;29.33;17.23;;;;;;;15.55;50.52;101399.16;5057730;28;20032;-76
2022/03/29 10:45:09;;;;;;;23.88;16.58;;;;;;;15.30;49.63;101391.19;5091577;28;20036;-76
2022/03/29 10:47:34;;;;;;;26.02;16.80;;;;;;;15.33;49.43;101392.59;5091112;28;20023;-74
2022/03/29 10:50:01;;;;;;;27.80;16.75;;;;;;;16.05;48.65;101387.38;5091350;28;20542;-76
2022/03/29 10:52:29;;;;;;;24.88;17.05;;;;;;;15.21;50.28;101384.59;5093337;28;20052;-75
2022/03/29 10:55:15;;;;;;;25.75;17.45;;;;;;;14.61;50.42;101382.00;5092842;28;20106;-74
2022/03/29 10:57:40;;;;;;;26.48;17.33;;;;;;;14.65;51.47;101377.22;5091791;28;20031;-73
2022/03/29 11:00:09;;;;;;;29.17;17.80;;;;;;;14.82;49.59;101377.63;5092895;28;20032;-75
2022/03/29 11:02:34;;;;;;;30.67;17.50;;;;;;;14.65;50.54;101372.81;5074340;28;20024;-74
2022/03/29 11:05:07;;;;;;;28.27;17.52;;;;;;;14.18;51.14;101378.88;5089948;28;20497;-73
2022/03/29 11:07:48;;;;;;;32.03;17.30;;;;;;;14.91;49.89;101363.41;5073922;28;20111;-74
2022/03/29 11:10:15;;;;;;;29.23;16.85;;;;;;;14.70;50.71;101377.41;5093736;28;20083;-75
2022/03/29 11:12:54;;;;;;;24.73;17.27;;;;;;;12.93;55.31;101366.81;5093598;28;20059;-73
2022/03/29 11:15:42;;;;;;;29.77;17.30;;;;;;;13.64;53.52;101362.31;5095100;28;20505;-73
2022/03/29 11:18:29;;;;;;;26.48;17.02;;;;;;;14.53;52.46;101350.19;5082365;28;20036;-76
2022/03/29 11:20:59;;;;;;;28.63;17.27;;;;;;;15.42;49.64;101347.13;5093877;28;20560;-75
2022/03/29 11:23:31;;;;;;;23.08;16.20;;;;;;;15.60;47.36;101343.84;5094380;28;20107;-74
2022/03/29 11:25:56;;;;;;;28.05;16.73;;;;;;;15.76;48.01;101342.59;5094453;28;20024;-74
2022/03/29 11:28:22;;;;;;;29.20;17.77;;;;;;;14.38;49.23;101353.72;5093833;28;20047;-75